createdAt,value
2023-05-02T06:18:54.870Z,94.13
2023-05-02T06:21:21.699Z,95.74
2023-05-02T06:23:48.648Z,95.01
2023-05-02T06:26:15.495Z,95.21
2023-05-02T06:28:42.335Z,96.28
2023-05-02T06:31:09.230Z,95.56
2023-05-02T06:33:36.909Z,95.24
2023-05-02T06:36:04.037Z,96.00
2023-05-02T06:38:30.890Z,95.91
2023-05-02T06:40:57.763Z,95.09
2023-05-02T06:43:24.644Z,94.75
2023-05-02T06:45:55.618Z,96.09
2023-05-02T06:48:22.925Z,96.09
2023-05-02T06:50:51.614Z,95.78
2023-05-02T06:53:18.404Z,95.50
2023-05-02T06:55:46.521Z,95.89
2023-05-02T06:58:13.500Z,96.11
2023-05-02T07:00:41.198Z,96.39
2023-05-02T07:03:08.691Z,96.41
2023-05-02T07:05:35.627Z,96.70
2023-05-02T07:08:02.486Z,95.92
2023-05-02T07:10:29.366Z,95.94
2023-05-02T07:12:56.303Z,95.81
2023-05-02T07:15:23.249Z,95.72
2023-05-02T07:17:50.620Z,95.07
2023-05-02T07:20:17.791Z,94.83
2023-05-02T07:22:44.589Z,95.46
2023-05-02T07:25:11.574Z,94.94
2023-05-02T07:27:38.445Z,95.19
2023-05-02T07:30:06.789Z,94.62
2023-05-02T07:32:33.789Z,94.83
2023-05-02T07:35:00.771Z,94.48
2023-05-02T07:37:27.692Z,95.03
2023-05-02T07:39:54.559Z,94.85
2023-05-02T07:42:21.390Z,94.33
2023-05-02T07:44:48.212Z,94.59
2023-05-02T07:47:15.068Z,93.68
2023-05-02T07:49:41.947Z,93.75
2023-05-02T07:52:08.748Z,93.57
2023-05-02T07:54:36.027Z,93.57
2023-05-02T07:57:03.618Z,93.48
2023-05-02T07:59:31.706Z,93.24
2023-05-02T08:01:58.761Z,93.37
2023-05-02T08:04:26.457Z,92.62
2023-05-02T08:06:53.546Z,92.08
2023-05-02T08:09:20.369Z,91.80
2023-05-02T08:11:47.679Z,91.38
2023-05-02T08:14:16.239Z,91.50
2023-05-02T08:16:45.536Z,91.44
2023-05-02T08:19:13.208Z,91.23
2023-05-02T08:21:40.034Z,90.28
2023-05-02T08:24:06.936Z,90.03
2023-05-02T08:26:33.964Z,88.73
2023-05-02T08:29:01.309Z,88.92
2023-05-02T08:31:28.334Z,87.62
2023-05-02T08:33:55.184Z,85.88
2023-05-02T08:36:22.226Z,85.47
2023-05-02T08:38:49.708Z,85.45
2023-05-02T08:41:19.697Z,84.66
2023-05-02T08:43:47.027Z,83.08
2023-05-02T08:46:15.255Z,81.69
2023-05-02T08:48:43.241Z,80.70
2023-05-02T08:51:12.151Z,81.30
2023-05-02T08:53:40.168Z,81.14
2023-05-02T08:56:08.306Z,81.12
2023-05-02T08:58:39.565Z,80.82
2023-05-02T09:01:24.998Z,81.53
2023-05-02T09:03:52.585Z,80.77
2023-05-02T09:06:23.114Z,80.60
2023-05-02T09:08:52.690Z,80.78
2023-05-02T09:11:19.948Z,80.42
2023-05-02T09:13:52.302Z,78.38
2023-05-02T09:16:27.346Z,79.09
2023-05-02T09:18:55.374Z,79.44
2023-05-02T09:21:24.232Z,80.06
2023-05-02T09:23:54.159Z,77.93
2023-05-02T09:26:35.262Z,76.37
2023-05-02T09:29:04.001Z,77.75
2023-05-02T09:34:12.098Z,78.80
2023-05-02T09:36:43.591Z,78.69
2023-05-02T09:39:13.352Z,77.92
2023-05-02T09:41:45.261Z,77.06
2023-05-02T09:44:17.221Z,76.90
2023-05-02T09:47:04.322Z,77.00
2023-05-02T09:49:46.104Z,76.54
2023-05-02T09:52:17.825Z,75.93
2023-05-02T09:54:56.636Z,75.76
2023-05-02T09:57:39.638Z,76.13
2023-05-02T10:00:07.053Z,76.92
2023-05-02T10:02:34.402Z,76.30
2023-05-02T10:05:02.163Z,75.54
2023-05-02T10:07:29.600Z,75.79
2023-05-02T10:09:58.789Z,76.66
2023-05-02T10:12:27.045Z,74.84
2023-05-02T10:15:01.527Z,74.40
2023-05-02T10:17:31.942Z,73.64
2023-05-02T10:20:04.848Z,74.78
2023-05-02T10:22:37.113Z,74.60
2023-05-02T10:25:04.705Z,71.42
2023-05-02T10:27:32.432Z,72.54
2023-05-02T10:30:01.032Z,73.12
2023-05-02T10:32:34.057Z,71.97
2023-05-02T10:35:08.363Z,72.31
2023-05-02T10:37:36.925Z,71.89
2023-05-02T10:40:04.155Z,72.66
2023-05-02T10:42:31.208Z,73.27
2023-05-02T10:44:58.240Z,72.83
2023-05-02T10:47:28.414Z,72.89
2023-05-02T10:50:00.995Z,72.31
2023-05-02T10:52:38.298Z,70.26
2023-05-02T10:55:18.337Z,68.92
2023-05-02T10:58:00.191Z,70.72
2023-05-02T11:00:32.636Z,71.46
2023-05-02T11:03:00.095Z,72.11
2023-05-02T11:05:28.525Z,72.27
2023-05-02T11:08:24.927Z,69.57
2023-05-02T11:10:51.901Z,70.00
2023-05-02T11:13:51.363Z,70.46
2023-05-02T11:16:18.360Z,71.93
2023-05-02T11:19:01.500Z,70.95
2023-05-02T11:21:29.787Z,72.61
2023-05-02T11:24:33.760Z,72.34
2023-05-02T11:27:31.489Z,72.35
2023-05-02T11:30:03.106Z,71.87
2023-05-02T11:32:49.523Z,71.39
2023-05-02T11:35:17.209Z,71.57
2023-05-02T11:37:44.091Z,72.04
2023-05-02T11:40:14.572Z,70.35
2023-05-02T11:42:42.053Z,71.09
2023-05-02T11:45:13.685Z,72.00
2023-05-02T11:47:42.252Z,71.46
2023-05-02T11:50:09.887Z,71.71
2023-05-02T11:52:41.136Z,71.79
2023-05-02T11:55:11.734Z,71.78
2023-05-02T11:57:39.454Z,71.15
2023-05-02T12:00:08.129Z,71.58
2023-05-02T12:02:45.599Z,71.27
2023-05-02T12:05:14.063Z,70.97
2023-05-02T12:07:45.928Z,71.91
2023-05-02T12:10:13.520Z,72.72
2023-05-02T12:12:41.393Z,72.79
2023-05-02T12:15:10.128Z,69.62
2023-05-02T12:17:42.649Z,70.34
2023-05-02T12:20:10.254Z,69.42
2023-05-02T12:22:37.978Z,69.39
2023-05-02T12:25:05.932Z,69.59
2023-05-02T12:27:35.504Z,68.20
2023-05-02T12:30:02.917Z,68.04
2023-05-02T12:32:31.596Z,68.65
2023-05-02T12:34:59.423Z,70.04
2023-05-02T12:37:27.553Z,69.78
2023-05-02T12:39:55.897Z,68.71
2023-05-02T12:42:27.006Z,68.57
2023-05-02T12:44:54.135Z,66.70
2023-05-02T12:47:22.895Z,66.50
2023-05-02T12:49:52.773Z,68.12
2023-05-02T12:52:20.768Z,67.61
2023-05-02T12:54:48.582Z,66.35
2023-05-02T12:57:24.167Z,64.66
2023-05-02T12:59:53.426Z,64.58
2023-05-02T13:02:21.347Z,65.87
2023-05-02T13:04:48.314Z,65.75
2023-05-02T13:07:15.122Z,63.84
2023-05-02T13:09:41.992Z,64.02
2023-05-02T13:12:09.484Z,62.64
2023-05-02T13:14:36.428Z,64.13
2023-05-02T13:17:04.217Z,65.06
2023-05-02T13:19:31.835Z,65.81
2023-05-02T13:21:58.930Z,64.15
2023-05-02T13:24:25.953Z,64.78
2023-05-02T13:26:52.849Z,64.63
2023-05-02T13:29:19.680Z,63.90
2023-05-02T13:31:46.499Z,63.95
2023-05-02T13:34:13.428Z,65.61
2023-05-02T13:36:46.419Z,64.08
2023-05-02T13:39:14.187Z,64.07
2023-05-02T13:41:41.688Z,65.42
2023-05-02T13:44:09.615Z,65.85
2023-05-02T13:46:37.997Z,65.49
2023-05-02T13:49:05.646Z,66.12
2023-05-02T13:51:33.100Z,65.37
2023-05-02T13:54:00.566Z,66.79
2023-05-02T13:56:27.694Z,64.61
2023-05-02T13:58:54.687Z,65.92
2023-05-02T14:01:21.575Z,65.78
2023-05-02T14:03:49.251Z,64.68
2023-05-02T14:06:16.699Z,65.49
2023-05-02T14:08:44.014Z,65.30
2023-05-02T14:11:11.534Z,64.64
2023-05-02T14:13:38.373Z,64.72
2023-05-02T14:16:05.810Z,65.94
2023-05-02T14:18:32.725Z,65.71
2023-05-02T14:21:00.319Z,65.35
2023-05-02T14:23:30.733Z,64.38
2023-05-02T14:25:58.078Z,63.68
2023-05-02T14:28:24.948Z,61.20
2023-05-02T14:30:51.882Z,62.16
2023-05-02T14:33:18.768Z,61.87
2023-05-02T14:35:45.950Z,61.67
2023-05-02T14:38:12.814Z,59.36
2023-05-02T14:40:39.657Z,60.31
2023-05-02T14:43:06.606Z,58.12
2023-05-02T14:45:33.452Z,58.44
2023-05-02T14:48:00.360Z,59.48
2023-05-02T14:50:27.202Z,60.91
2023-05-02T14:52:54.097Z,60.41
2023-05-02T14:55:20.979Z,59.27
2023-05-02T14:57:48.143Z,57.28
2023-05-02T15:00:16.313Z,58.87
2023-05-02T15:02:43.337Z,60.00
2023-05-02T15:05:12.779Z,59.95
2023-05-02T15:07:40.003Z,60.81
2023-05-02T15:10:07.279Z,61.03
2023-05-02T15:12:34.188Z,62.01
2023-05-02T15:15:01.236Z,63.73
2023-05-02T15:17:28.081Z,63.74
2023-05-02T15:19:57.047Z,63.93
2023-05-02T15:22:26.240Z,64.12
2023-05-02T15:24:53.165Z,63.65
2023-05-02T15:27:19.989Z,63.61
2023-05-02T15:29:48.218Z,64.30
2023-05-02T15:32:15.096Z,64.62
2023-05-02T15:34:41.922Z,64.52
2023-05-02T15:37:08.883Z,65.21
2023-05-02T15:39:35.914Z,65.51
2023-05-02T15:42:06.292Z,66.88
2023-05-02T15:44:39.320Z,66.98
2023-05-02T15:47:06.212Z,67.41
2023-05-02T15:49:33.815Z,67.75
2023-05-02T15:52:02.730Z,67.15
2023-05-02T15:54:29.957Z,66.84
2023-05-02T15:56:56.740Z,67.02
2023-05-02T15:59:23.517Z,67.27
2023-05-02T16:01:50.359Z,67.43
2023-05-02T16:04:17.361Z,67.35
2023-05-02T16:06:44.521Z,67.24
2023-05-02T16:09:12.992Z,67.90
2023-05-02T16:11:39.848Z,66.01
2023-05-02T16:14:06.810Z,67.53
2023-05-02T16:16:34.250Z,68.19
2023-05-02T16:19:01.378Z,67.47
2023-05-02T16:21:28.337Z,68.94
2023-05-02T16:23:55.342Z,68.96
2023-05-02T16:26:22.310Z,68.80
2023-05-02T16:28:49.236Z,69.54
2023-05-02T16:31:16.276Z,68.64
2023-05-02T16:33:43.147Z,68.89
2023-05-02T16:36:10.496Z,68.09
2023-05-02T16:38:37.338Z,67.20
2023-05-02T16:41:07.186Z,68.69
2023-05-02T16:43:34.276Z,69.31
2023-05-02T16:46:06.431Z,69.49
2023-05-02T16:48:34.098Z,69.15
2023-05-02T16:51:02.549Z,70.23
2023-05-02T16:53:31.546Z,70.52
2023-05-02T16:55:59.753Z,71.78
2023-05-02T16:58:29.262Z,71.86
2023-05-02T17:00:56.568Z,70.41
2023-05-02T17:03:23.482Z,70.39
2023-05-02T17:05:50.279Z,71.23
2023-05-02T17:08:17.130Z,70.55
2023-05-02T17:10:51.957Z,71.18
2023-05-02T17:13:18.819Z,70.89
2023-05-02T17:15:45.633Z,71.78
2023-05-02T17:18:12.515Z,71.87
2023-05-02T17:20:39.951Z,71.81
2023-05-02T17:23:07.188Z,71.84
2023-05-02T17:25:34.136Z,71.41
2023-05-02T17:28:01.917Z,69.66
2023-05-02T17:30:29.553Z,69.63
2023-05-02T17:32:56.875Z,69.17
2023-05-02T17:35:23.881Z,69.09
2023-05-02T17:37:50.719Z,67.97
2023-05-02T17:40:17.633Z,69.66
2023-05-02T17:42:47.465Z,70.77
2023-05-02T17:45:14.230Z,69.44
2023-05-02T17:47:41.141Z,70.50
2023-05-02T17:50:08.915Z,71.07
2023-05-02T17:52:35.756Z,70.93
2023-05-02T17:55:02.714Z,71.83
2023-05-02T17:57:29.734Z,72.29
2023-05-02T17:59:59.713Z,72.58
2023-05-02T18:02:27.748Z,72.23
2023-05-02T18:04:55.047Z,73.42
2023-05-02T18:07:28.468Z,73.52
2023-05-02T18:09:55.603Z,72.81
2023-05-02T18:12:22.527Z,73.20
2023-05-02T18:14:49.392Z,73.82
2023-05-02T18:17:20.637Z,74.01
2023-05-02T18:19:49.415Z,73.91
2023-05-02T18:22:19.568Z,75.35
2023-05-02T18:24:47.177Z,74.90
2023-05-02T18:27:14.020Z,74.53
2023-05-02T18:29:41.542Z,74.83
2023-05-02T18:32:08.564Z,74.41
2023-05-02T18:34:38.368Z,75.15
2023-05-02T18:37:05.907Z,75.29
2023-05-02T18:39:33.514Z,75.59
2023-05-02T18:42:04.474Z,75.94
2023-05-02T18:44:31.934Z,75.70
2023-05-02T18:46:59.018Z,76.17
2023-05-02T18:49:26.603Z,75.92
2023-05-02T18:51:54.641Z,76.07
2023-05-02T18:54:23.550Z,75.57
2023-05-02T18:56:50.638Z,76.15
2023-05-02T18:59:19.128Z,76.63
2023-05-02T19:01:48.582Z,77.44
2023-05-02T19:04:15.924Z,77.48
2023-05-02T19:06:43.237Z,77.82
2023-05-02T19:09:12.672Z,78.44
2023-05-02T19:11:40.714Z,79.01
2023-05-02T19:14:08.327Z,79.02
2023-05-02T19:16:36.416Z,79.27
2023-05-02T19:19:03.881Z,79.53
2023-05-02T19:21:31.885Z,80.41
2023-05-02T19:23:59.579Z,80.77
2023-05-02T19:26:26.945Z,80.75
2023-05-02T19:28:54.063Z,80.39
2023-05-02T19:31:21.666Z,81.38
2023-05-02T19:33:52.213Z,82.91
2023-05-02T19:36:22.218Z,84.10
2023-05-02T19:38:51.493Z,85.54
2023-05-02T19:41:18.972Z,85.01
2023-05-02T19:43:46.477Z,85.97
2023-05-02T19:46:16.904Z,86.63
2023-05-02T19:48:44.181Z,87.47
2023-05-02T19:51:11.306Z,88.30
2023-05-02T19:53:38.601Z,88.10
2023-05-02T19:56:08.847Z,88.08
